sensor_id;sensor_type;location;lat;lon;timestamp;P1;durP1;ratioP1;P2;durP2;ratioP2
46090;SDS011;31826;53.572;10.170;2023-04-07T00:00:24;14.43;;;6.50;;
46090;SDS011;31826;53.572;10.170;2023-04-07T00:02:50;13.45;;;6.55;;
46090;SDS011;31826;53.572;10.170;2023-04-07T00:05:16;12.88;;;6.20;;
46090;SDS011;31826;53.572;10.170;2023-04-07T00:07:42;13.13;;;6.10;;
46090;SDS011;31826;53.572;10.170;2023-04-07T00:10:08;11.77;;;5.70;;
46090;SDS011;31826;53.572;10.170;2023-04-07T00:12:34;12.88;;;6.68;;
46090;SDS011;31826;53.572;10.170;2023-04-07T00:15:00;11.57;;;5.50;;
46090;SDS011;31826;53.572;10.170;2023-04-07T00:17:26;11.75;;;5.30;;
46090;SDS011;31826;53.572;10.170;2023-04-07T00:19:52;12.15;;;5.53;;
46090;SDS011;31826;53.572;10.170;2023-04-07T00:22:17;11.40;;;5.85;;
46090;SDS011;31826;53.572;10.170;2023-04-07T00:24:43;11.90;;;5.43;;
46090;SDS011;31826;53.572;10.170;2023-04-07T00:27:09;10.33;;;5.27;;
46090;SDS011;31826;53.572;10.170;2023-04-07T00:29:35;11.63;;;5.80;;
46090;SDS011;31826;53.572;10.170;2023-04-07T00:32:00;12.20;;;5.67;;
46090;SDS011;31826;53.572;10.170;2023-04-07T00:34:26;11.73;;;5.37;;
46090;SDS011;31826;53.572;10.170;2023-04-07T00:36:52;11.87;;;5.47;;
46090;SDS011;31826;53.572;10.170;2023-04-07T00:39:18;12.33;;;6.00;;
46090;SDS011;31826;53.572;10.170;2023-04-07T00:41:44;10.10;;;4.85;;
46090;SDS011;31826;53.572;10.170;2023-04-07T00:44:11;10.95;;;5.63;;
46090;SDS011;31826;53.572;10.170;2023-04-07T00:46:37;11.50;;;5.78;;
46090;SDS011;31826;53.572;10.170;2023-04-07T00:49:03;10.63;;;5.32;;
46090;SDS011;31826;53.572;10.170;2023-04-07T00:51:29;12.13;;;5.47;;
46090;SDS011;31826;53.572;10.170;2023-04-07T00:53:55;10.77;;;5.03;;
46090;SDS011;31826;53.572;10.170;2023-04-07T00:56:21;10.40;;;5.00;;
46090;SDS011;31826;53.572;10.170;2023-04-07T00:58:47;11.30;;;5.40;;
46090;SDS011;31826;53.572;10.170;2023-04-07T01:01:14;10.13;;;5.10;;
46090;SDS011;31826;53.572;10.170;2023-04-07T01:03:51;11.73;;;5.05;;
46090;SDS011;31826;53.572;10.170;2023-04-07T01:06:27;10.35;;;5.10;;
46090;SDS011;31826;53.572;10.170;2023-04-07T01:09:09;11.43;;;5.45;;
46090;SDS011;31826;53.572;10.170;2023-04-07T01:11:47;11.80;;;5.45;;
46090;SDS011;31826;53.572;10.170;2023-04-07T01:14:16;12.07;;;4.63;;
46090;SDS011;31826;53.572;10.170;2023-04-07T01:16:49;11.20;;;4.78;;
46090;SDS011;31826;53.572;10.170;2023-04-07T01:22:08;10.73;;;4.65;;
46090;SDS011;31826;53.572;10.170;2023-04-07T01:30:15;10.88;;;4.93;;
46090;SDS011;31826;53.572;10.170;2023-04-07T01:32:42;10.45;;;4.65;;
46090;SDS011;31826;53.572;10.170;2023-04-07T01:35:14;11.52;;;4.97;;
46090;SDS011;31826;53.572;10.170;2023-04-07T01:37:42;11.10;;;4.65;;
46090;SDS011;31826;53.572;10.170;2023-04-07T01:40:10;10.52;;;4.60;;
46090;SDS011;31826;53.572;10.170;2023-04-07T01:42:37;9.00;;;4.70;;
46090;SDS011;31826;53.572;10.170;2023-04-07T01:45:04;11.13;;;5.10;;
46090;SDS011;31826;53.572;10.170;2023-04-07T01:47:31;10.60;;;4.70;;
46090;SDS011;31826;53.572;10.170;2023-04-07T01:49:58;9.88;;;4.78;;
46090;SDS011;31826;53.572;10.170;2023-04-07T01:52:26;10.23;;;4.82;;
46090;SDS011;31826;53.572;10.170;2023-04-07T01:54:53;10.05;;;4.30;;
46090;SDS011;31826;53.572;10.170;2023-04-07T01:57:19;9.00;;;4.45;;
46090;SDS011;31826;53.572;10.170;2023-04-07T01:59:45;8.65;;;4.18;;
46090;SDS011;31826;53.572;10.170;2023-04-07T02:02:11;8.57;;;4.40;;
46090;SDS011;31826;53.572;10.170;2023-04-07T02:04:39;7.87;;;3.93;;
46090;SDS011;31826;53.572;10.170;2023-04-07T02:07:30;8.80;;;4.25;;
46090;SDS011;31826;53.572;10.170;2023-04-07T02:10:04;9.00;;;4.38;;
46090;SDS011;31826;53.572;10.170;2023-04-07T02:12:32;10.20;;;4.40;;
46090;SDS011;31826;53.572;10.170;2023-04-07T02:15:00;8.57;;;4.43;;
46090;SDS011;31826;53.572;10.170;2023-04-07T02:17:29;8.73;;;3.97;;
46090;SDS011;31826;53.572;10.170;2023-04-07T02:19:58;8.43;;;4.03;;
46090;SDS011;31826;53.572;10.170;2023-04-07T02:22:26;10.98;;;4.47;;
46090;SDS011;31826;53.572;10.170;2023-04-07T02:24:53;8.18;;;4.35;;
46090;SDS011;31826;53.572;10.170;2023-04-07T02:27:19;8.15;;;3.83;;
46090;SDS011;31826;53.572;10.170;2023-04-07T02:29:45;8.83;;;3.83;;
46090;SDS011;31826;53.572;10.170;2023-04-07T02:32:10;10.07;;;4.33;;
46090;SDS011;31826;53.572;10.170;2023-04-07T02:34:36;9.27;;;4.27;;
46090;SDS011;31826;53.572;10.170;2023-04-07T02:37:02;8.27;;;4.20;;
46090;SDS011;31826;53.572;10.170;2023-04-07T02:39:27;7.93;;;3.73;;
46090;SDS011;31826;53.572;10.170;2023-04-07T02:41:53;7.80;;;3.70;;
46090;SDS011;31826;53.572;10.170;2023-04-07T02:44:19;8.38;;;3.92;;
46090;SDS011;31826;53.572;10.170;2023-04-07T02:46:45;9.63;;;3.85;;
46090;SDS011;31826;53.572;10.170;2023-04-07T02:49:10;9.13;;;4.03;;
46090;SDS011;31826;53.572;10.170;2023-04-07T02:51:36;8.77;;;4.00;;
46090;SDS011;31826;53.572;10.170;2023-04-07T02:54:02;9.88;;;4.40;;
46090;SDS011;31826;53.572;10.170;2023-04-07T02:56:28;9.30;;;3.85;;
46090;SDS011;31826;53.572;10.170;2023-04-07T02:58:53;8.05;;;4.13;;
46090;SDS011;31826;53.572;10.170;2023-04-07T03:01:19;7.20;;;3.65;;
46090;SDS011;31826;53.572;10.170;2023-04-07T03:03:45;10.13;;;3.90;;
46090;SDS011;31826;53.572;10.170;2023-04-07T03:06:12;8.75;;;3.92;;
46090;SDS011;31826;53.572;10.170;2023-04-07T03:08:38;8.88;;;3.97;;
46090;SDS011;31826;53.572;10.170;2023-04-07T03:11:03;7.63;;;3.93;;
46090;SDS011;31826;53.572;10.170;2023-04-07T03:13:29;8.60;;;3.87;;
46090;SDS011;31826;53.572;10.170;2023-04-07T03:15:56;10.03;;;4.03;;
46090;SDS011;31826;53.572;10.170;2023-04-07T03:18:22;7.90;;;3.75;;
46090;SDS011;31826;53.572;10.170;2023-04-07T03:20:48;8.90;;;3.80;;
46090;SDS011;31826;53.572;10.170;2023-04-07T03:23:13;9.45;;;3.70;;
46090;SDS011;31826;53.572;10.170;2023-04-07T03:25:39;11.50;;;4.07;;
46090;SDS011;31826;53.572;10.170;2023-04-07T03:28:06;10.30;;;4.50;;
46090;SDS011;31826;53.572;10.170;2023-04-07T03:30:32;8.50;;;4.10;;
46090;SDS011;31826;53.572;10.170;2023-04-07T03:32:58;9.00;;;3.93;;
46090;SDS011;31826;53.572;10.170;2023-04-07T03:35:23;8.63;;;3.93;;
46090;SDS011;31826;53.572;10.170;2023-04-07T03:37:49;9.20;;;3.78;;
46090;SDS011;31826;53.572;10.170;2023-04-07T03:40:15;9.43;;;4.22;;
46090;SDS011;31826;53.572;10.170;2023-04-07T03:42:41;10.05;;;4.07;;
46090;SDS011;31826;53.572;10.170;2023-04-07T03:45:07;8.47;;;3.90;;
46090;SDS011;31826;53.572;10.170;2023-04-07T03:47:33;7.45;;;3.70;;
46090;SDS011;31826;53.572;10.170;2023-04-07T03:49:59;9.15;;;4.18;;
46090;SDS011;31826;53.572;10.170;2023-04-07T03:52:25;10.85;;;3.80;;
46090;SDS011;31826;53.572;10.170;2023-04-07T03:54:51;8.80;;;3.70;;
46090;SDS011;31826;53.572;10.170;2023-04-07T03:57:16;8.48;;;3.83;;
46090;SDS011;31826;53.572;10.170;2023-04-07T03:59:42;9.68;;;3.78;;
46090;SDS011;31826;53.572;10.170;2023-04-07T04:02:08;7.60;;;3.72;;
46090;SDS011;31826;53.572;10.170;2023-04-07T04:04:33;7.63;;;3.60;;
46090;SDS011;31826;53.572;10.170;2023-04-07T04:06:59;8.00;;;3.90;;
46090;SDS011;31826;53.572;10.170;2023-04-07T04:09:25;8.23;;;3.97;;
46090;SDS011;31826;53.572;10.170;2023-04-07T04:11:51;8.80;;;3.80;;
46090;SDS011;31826;53.572;10.170;2023-04-07T04:14:17;7.93;;;3.40;;
46090;SDS011;31826;53.572;10.170;2023-04-07T04:16:42;8.50;;;3.90;;
46090;SDS011;31826;53.572;10.170;2023-04-07T04:19:08;10.60;;;4.00;;
46090;SDS011;31826;53.572;10.170;2023-04-07T04:21:34;8.13;;;3.80;;
46090;SDS011;31826;53.572;10.170;2023-04-07T04:23:59;8.80;;;3.90;;
46090;SDS011;31826;53.572;10.170;2023-04-07T04:26:25;8.93;;;3.57;;
46090;SDS011;31826;53.572;10.170;2023-04-07T04:28:51;8.57;;;4.27;;
46090;SDS011;31826;53.572;10.170;2023-04-07T04:31:17;8.30;;;4.00;;
46090;SDS011;31826;53.572;10.170;2023-04-07T04:33:43;9.20;;;4.30;;
46090;SDS011;31826;53.572;10.170;2023-04-07T04:36:08;9.30;;;3.90;;
46090;SDS011;31826;53.572;10.170;2023-04-07T04:38:34;9.10;;;4.15;;
46090;SDS011;31826;53.572;10.170;2023-04-07T04:41:00;7.72;;;4.00;;
46090;SDS011;31826;53.572;10.170;2023-04-07T04:43:25;7.13;;;3.70;;
46090;SDS011;31826;53.572;10.170;2023-04-07T04:45:51;9.93;;;3.95;;
46090;SDS011;31826;53.572;10.170;2023-04-07T04:48:17;8.82;;;4.00;;
46090;SDS011;31826;53.572;10.170;2023-04-07T04:50:43;9.73;;;3.85;;
46090;SDS011;31826;53.572;10.170;2023-04-07T04:53:08;9.27;;;4.15;;
46090;SDS011;31826;53.572;10.170;2023-04-07T04:55:34;10.73;;;4.10;;
46090;SDS011;31826;53.572;10.170;2023-04-07T04:58:00;9.57;;;4.20;;
46090;SDS011;31826;53.572;10.170;2023-04-07T05:00:26;8.80;;;3.77;;
46090;SDS011;31826;53.572;10.170;2023-04-07T05:02:52;8.67;;;4.10;;
46090;SDS011;31826;53.572;10.170;2023-04-07T05:05:18;13.43;;;4.38;;
46090;SDS011;31826;53.572;10.170;2023-04-07T05:07:44;8.40;;;3.93;;
46090;SDS011;31826;53.572;10.170;2023-04-07T05:10:10;9.57;;;4.23;;
46090;SDS011;31826;53.572;10.170;2023-04-07T05:12:37;9.25;;;4.47;;
46090;SDS011;31826;53.572;10.170;2023-04-07T05:15:03;9.53;;;3.87;;
46090;SDS011;31826;53.572;10.170;2023-04-07T05:17:29;11.68;;;4.43;;
46090;SDS011;31826;53.572;10.170;2023-04-07T05:19:55;8.85;;;4.25;;
46090;SDS011;31826;53.572;10.170;2023-04-07T05:22:21;8.85;;;3.95;;
46090;SDS011;31826;53.572;10.170;2023-04-07T05:24:46;9.57;;;4.28;;
46090;SDS011;31826;53.572;10.170;2023-04-07T05:27:12;12.48;;;4.85;;
46090;SDS011;31826;53.572;10.170;2023-04-07T05:29:38;10.13;;;4.23;;
46090;SDS011;31826;53.572;10.170;2023-04-07T05:32:04;10.60;;;4.47;;
46090;SDS011;31826;53.572;10.170;2023-04-07T05:34:30;9.18;;;4.10;;
46090;SDS011;31826;53.572;10.170;2023-04-07T05:36:56;10.33;;;4.10;;
46090;SDS011;31826;53.572;10.170;2023-04-07T05:39:22;11.52;;;3.88;;
46090;SDS011;31826;53.572;10.170;2023-04-07T05:41:47;10.38;;;4.32;;
46090;SDS011;31826;53.572;10.170;2023-04-07T05:44:13;8.85;;;3.90;;
46090;SDS011;31826;53.572;10.170;2023-04-07T05:46:39;9.98;;;4.10;;
46090;SDS011;31826;53.572;10.170;2023-04-07T05:49:05;8.15;;;3.95;;
46090;SDS011;31826;53.572;10.170;2023-04-07T05:51:30;11.15;;;4.20;;
46090;SDS011;31826;53.572;10.170;2023-04-07T05:53:57;10.05;;;4.40;;
46090;SDS011;31826;53.572;10.170;2023-04-07T05:56:27;9.65;;;4.22;;
46090;SDS011;31826;53.572;10.170;2023-04-07T05:58:52;8.98;;;4.20;;
46090;SDS011;31826;53.572;10.170;2023-04-07T06:01:18;8.73;;;3.70;;
46090;SDS011;31826;53.572;10.170;2023-04-07T06:03:44;9.85;;;4.65;;
46090;SDS011;31826;53.572;10.170;2023-04-07T06:06:10;8.70;;;3.83;;
46090;SDS011;31826;53.572;10.170;2023-04-07T06:08:35;9.00;;;4.43;;
46090;SDS011;31826;53.572;10.170;2023-04-07T06:11:01;9.48;;;4.20;;
46090;SDS011;31826;53.572;10.170;2023-04-07T06:13:27;9.85;;;4.30;;
46090;SDS011;31826;53.572;10.170;2023-04-07T06:15:55;9.90;;;4.25;;
46090;SDS011;31826;53.572;10.170;2023-04-07T06:18:21;9.18;;;4.45;;
46090;SDS011;31826;53.572;10.170;2023-04-07T06:20:47;10.75;;;5.05;;
46090;SDS011;31826;53.572;10.170;2023-04-07T06:23:13;9.73;;;4.13;;
46090;SDS011;31826;53.572;10.170;2023-04-07T06:25:38;8.65;;;4.30;;
46090;SDS011;31826;53.572;10.170;2023-04-07T06:28:04;9.13;;;4.32;;
46090;SDS011;31826;53.572;10.170;2023-04-07T06:30:30;8.93;;;4.30;;
46090;SDS011;31826;53.572;10.170;2023-04-07T06:32:56;9.27;;;4.45;;
46090;SDS011;31826;53.572;10.170;2023-04-07T06:35:21;11.77;;;4.53;;
46090;SDS011;31826;53.572;10.170;2023-04-07T06:37:47;10.18;;;4.65;;
46090;SDS011;31826;53.572;10.170;2023-04-07T06:40:13;11.43;;;4.72;;
46090;SDS011;31826;53.572;10.170;2023-04-07T06:42:39;11.88;;;4.85;;
46090;SDS011;31826;53.572;10.170;2023-04-07T06:45:05;9.43;;;4.40;;
46090;SDS011;31826;53.572;10.170;2023-04-07T06:47:31;9.40;;;4.25;;
46090;SDS011;31826;53.572;10.170;2023-04-07T06:49:57;10.57;;;4.60;;
46090;SDS011;31826;53.572;10.170;2023-04-07T06:52:23;10.02;;;4.70;;
46090;SDS011;31826;53.572;10.170;2023-04-07T06:54:48;11.32;;;4.60;;
46090;SDS011;31826;53.572;10.170;2023-04-07T06:57:14;9.32;;;4.40;;
46090;SDS011;31826;53.572;10.170;2023-04-07T06:59:40;9.70;;;4.50;;
46090;SDS011;31826;53.572;10.170;2023-04-07T07:02:06;9.50;;;4.68;;
46090;SDS011;31826;53.572;10.170;2023-04-07T07:04:32;9.48;;;4.35;;
46090;SDS011;31826;53.572;10.170;2023-04-07T07:06:58;10.25;;;4.57;;
46090;SDS011;31826;53.572;10.170;2023-04-07T07:09:24;9.83;;;4.00;;
46090;SDS011;31826;53.572;10.170;2023-04-07T07:11:51;12.03;;;4.37;;
46090;SDS011;31826;53.572;10.170;2023-04-07T07:14:17;8.98;;;4.13;;
46090;SDS011;31826;53.572;10.170;2023-04-07T07:16:43;10.55;;;4.40;;
46090;SDS011;31826;53.572;10.170;2023-04-07T07:19:08;11.70;;;4.40;;
46090;SDS011;31826;53.572;10.170;2023-04-07T07:21:35;9.30;;;4.03;;
46090;SDS011;31826;53.572;10.170;2023-04-07T07:24:00;10.65;;;4.35;;
46090;SDS011;31826;53.572;10.170;2023-04-07T07:26:26;10.82;;;4.50;;
46090;SDS011;31826;53.572;10.170;2023-04-07T07:28:52;11.25;;;4.72;;
46090;SDS011;31826;53.572;10.170;2023-04-07T07:31:17;8.65;;;4.10;;
46090;SDS011;31826;53.572;10.170;2023-04-07T07:33:43;9.20;;;4.18;;
46090;SDS011;31826;53.572;10.170;2023-04-07T07:36:10;9.95;;;4.32;;
46090;SDS011;31826;53.572;10.170;2023-04-07T07:38:36;8.85;;;3.92;;
46090;SDS011;31826;53.572;10.170;2023-04-07T07:41:02;8.98;;;3.53;;
46090;SDS011;31826;53.572;10.170;2023-04-07T07:43:28;9.90;;;4.25;;
46090;SDS011;31826;53.572;10.170;2023-04-07T07:45:54;9.10;;;3.88;;
46090;SDS011;31826;53.572;10.170;2023-04-07T07:48:20;9.63;;;3.75;;
46090;SDS011;31826;53.572;10.170;2023-04-07T07:50:45;8.48;;;3.70;;
46090;SDS011;31826;53.572;10.170;2023-04-07T07:53:13;8.50;;;3.47;;
46090;SDS011;31826;53.572;10.170;2023-04-07T07:55:38;7.75;;;3.63;;
46090;SDS011;31826;53.572;10.170;2023-04-07T07:58:04;8.93;;;3.90;;
46090;SDS011;31826;53.572;10.170;2023-04-07T08:00:30;9.13;;;3.80;;
46090;SDS011;31826;53.572;10.170;2023-04-07T08:02:59;8.57;;;3.78;;
46090;SDS011;31826;53.572;10.170;2023-04-07T08:05:27;8.57;;;3.90;;
46090;SDS011;31826;53.572;10.170;2023-04-07T08:07:53;8.63;;;3.55;;
46090;SDS011;31826;53.572;10.170;2023-04-07T08:10:19;8.77;;;3.57;;
46090;SDS011;31826;53.572;10.170;2023-04-07T08:12:46;8.38;;;3.50;;
46090;SDS011;31826;53.572;10.170;2023-04-07T08:15:11;11.02;;;3.92;;
46090;SDS011;31826;53.572;10.170;2023-04-07T08:17:37;9.82;;;3.75;;
46090;SDS011;31826;53.572;10.170;2023-04-07T08:20:03;8.50;;;3.42;;
46090;SDS011;31826;53.572;10.170;2023-04-07T08:22:30;7.00;;;3.45;;
46090;SDS011;31826;53.572;10.170;2023-04-07T08:24:55;9.45;;;3.67;;
46090;SDS011;31826;53.572;10.170;2023-04-07T08:27:21;7.68;;;3.35;;
46090;SDS011;31826;53.572;10.170;2023-04-07T08:30:03;8.13;;;3.78;;
46090;SDS011;31826;53.572;10.170;2023-04-07T08:32:33;8.05;;;4.00;;
46090;SDS011;31826;53.572;10.170;2023-04-07T08:35:00;9.48;;;3.80;;
46090;SDS011;31826;53.572;10.170;2023-04-07T08:37:25;8.50;;;3.57;;
46090;SDS011;31826;53.572;10.170;2023-04-07T08:39:51;8.33;;;3.40;;
46090;SDS011;31826;53.572;10.170;2023-04-07T08:42:17;8.40;;;3.65;;
46090;SDS011;31826;53.572;10.170;2023-04-07T08:44:44;9.40;;;3.90;;
46090;SDS011;31826;53.572;10.170;2023-04-07T08:47:13;8.93;;;3.60;;
46090;SDS011;31826;53.572;10.170;2023-04-07T08:49:41;9.23;;;4.00;;
46090;SDS011;31826;53.572;10.170;2023-04-07T08:52:09;7.88;;;3.60;;
46090;SDS011;31826;53.572;10.170;2023-04-07T08:54:38;7.32;;;3.50;;
46090;SDS011;31826;53.572;10.170;2023-04-07T08:57:04;8.65;;;3.78;;
46090;SDS011;31826;53.572;10.170;2023-04-07T08:59:31;8.98;;;3.47;;
46090;SDS011;31826;53.572;10.170;2023-04-07T09:01:59;9.15;;;3.90;;
46090;SDS011;31826;53.572;10.170;2023-04-07T09:04:25;8.10;;;3.63;;
46090;SDS011;31826;53.572;10.170;2023-04-07T09:06:51;9.40;;;3.67;;
46090;SDS011;31826;53.572;10.170;2023-04-07T09:09:17;8.15;;;3.50;;
46090;SDS011;31826;53.572;10.170;2023-04-07T09:11:43;8.30;;;3.40;;
46090;SDS011;31826;53.572;10.170;2023-04-07T09:14:09;7.70;;;3.50;;
46090;SDS011;31826;53.572;10.170;2023-04-07T09:16:35;8.80;;;3.53;;
46090;SDS011;31826;53.572;10.170;2023-04-07T09:19:01;9.20;;;3.90;;
46090;SDS011;31826;53.572;10.170;2023-04-07T09:21:35;9.00;;;3.80;;
46090;SDS011;31826;53.572;10.170;2023-04-07T09:24:24;8.32;;;3.92;;
46090;SDS011;31826;53.572;10.170;2023-04-07T09:29:36;10.73;;;3.80;;
46090;SDS011;31826;53.572;10.170;2023-04-07T09:32:02;9.95;;;3.90;;
46090;SDS011;31826;53.572;10.170;2023-04-07T09:36:54;8.93;;;4.07;;
46090;SDS011;31826;53.572;10.170;2023-04-07T09:39:21;10.13;;;3.90;;
46090;SDS011;31826;53.572;10.170;2023-04-07T09:41:48;8.90;;;4.25;;
46090;SDS011;31826;53.572;10.170;2023-04-07T09:44:13;9.88;;;4.15;;
46090;SDS011;31826;53.572;10.170;2023-04-07T09:49:22;11.18;;;4.50;;
46090;SDS011;31826;53.572;10.170;2023-04-07T09:51:52;7.40;;;3.65;;
46090;SDS011;31826;53.572;10.170;2023-04-07T09:56:59;9.95;;;4.10;;
46090;SDS011;31826;53.572;10.170;2023-04-07T09:59:30;10.15;;;4.38;;
46090;SDS011;31826;53.572;10.170;2023-04-07T10:01:56;7.97;;;3.60;;
46090;SDS011;31826;53.572;10.170;2023-04-07T10:04:23;7.38;;;3.40;;
46090;SDS011;31826;53.572;10.170;2023-04-07T10:06:51;8.23;;;4.03;;
46090;SDS011;31826;53.572;10.170;2023-04-07T10:09:25;8.00;;;3.80;;
46090;SDS011;31826;53.572;10.170;2023-04-07T10:11:52;9.43;;;3.63;;
46090;SDS011;31826;53.572;10.170;2023-04-07T10:14:19;9.45;;;4.18;;
46090;SDS011;31826;53.572;10.170;2023-04-07T10:16:47;8.55;;;3.65;;
46090;SDS011;31826;53.572;10.170;2023-04-07T10:19:14;7.90;;;3.65;;
46090;SDS011;31826;53.572;10.170;2023-04-07T10:21:41;9.35;;;4.20;;
46090;SDS011;31826;53.572;10.170;2023-04-07T10:26:53;6.88;;;3.22;;
46090;SDS011;31826;53.572;10.170;2023-04-07T10:29:22;9.98;;;3.67;;
46090;SDS011;31826;53.572;10.170;2023-04-07T10:31:48;8.18;;;3.38;;
46090;SDS011;31826;53.572;10.170;2023-04-07T10:34:15;7.35;;;3.55;;
46090;SDS011;31826;53.572;10.170;2023-04-07T10:39:37;7.95;;;3.35;;
46090;SDS011;31826;53.572;10.170;2023-04-07T10:42:03;9.77;;;3.80;;
46090;SDS011;31826;53.572;10.170;2023-04-07T10:47:07;9.93;;;4.55;;
46090;SDS011;31826;53.572;10.170;2023-04-07T10:49:33;7.35;;;3.28;;
46090;SDS011;31826;53.572;10.170;2023-04-07T10:52:42;7.47;;;3.42;;
46090;SDS011;31826;53.572;10.170;2023-04-07T10:54:57;9.13;;;3.80;;
46090;SDS011;31826;53.572;10.170;2023-04-07T11:00:41;7.87;;;3.50;;
46090;SDS011;31826;53.572;10.170;2023-04-07T11:03:26;7.53;;;3.28;;
46090;SDS011;31826;53.572;10.170;2023-04-07T11:06:06;7.20;;;3.10;;
46090;SDS011;31826;53.572;10.170;2023-04-07T11:11:03;7.22;;;3.33;;
46090;SDS011;31826;53.572;10.170;2023-04-07T11:13:39;7.15;;;3.30;;
46090;SDS011;31826;53.572;10.170;2023-04-07T11:16:10;6.60;;;3.03;;
46090;SDS011;31826;53.572;10.170;2023-04-07T11:18:37;7.40;;;3.22;;
46090;SDS011;31826;53.572;10.170;2023-04-07T11:21:03;6.80;;;3.60;;
46090;SDS011;31826;53.572;10.170;2023-04-07T11:24:04;7.68;;;3.35;;
46090;SDS011;31826;53.572;10.170;2023-04-07T11:26:22;6.68;;;3.10;;
46090;SDS011;31826;53.572;10.170;2023-04-07T11:28:49;8.00;;;3.03;;
46090;SDS011;31826;53.572;10.170;2023-04-07T11:31:25;9.05;;;2.85;;
46090;SDS011;31826;53.572;10.170;2023-04-07T11:33:56;5.83;;;2.63;;
46090;SDS011;31826;53.572;10.170;2023-04-07T11:36:33;6.53;;;2.83;;
46090;SDS011;31826;53.572;10.170;2023-04-07T11:39:03;5.55;;;2.97;;
46090;SDS011;31826;53.572;10.170;2023-04-07T11:41:30;8.45;;;2.85;;
46090;SDS011;31826;53.572;10.170;2023-04-07T11:44:07;7.10;;;3.03;;
46090;SDS011;31826;53.572;10.170;2023-04-07T11:46:34;7.40;;;2.70;;
46090;SDS011;31826;53.572;10.170;2023-04-07T11:49:13;6.67;;;2.80;;
46090;SDS011;31826;53.572;10.170;2023-04-07T11:51:42;6.95;;;3.00;;
46090;SDS011;31826;53.572;10.170;2023-04-07T11:54:08;7.05;;;2.70;;
46090;SDS011;31826;53.572;10.170;2023-04-07T11:56:42;7.80;;;3.35;;
46090;SDS011;31826;53.572;10.170;2023-04-07T11:59:18;6.55;;;2.90;;
46090;SDS011;31826;53.572;10.170;2023-04-07T12:01:47;5.63;;;2.70;;
46090;SDS011;31826;53.572;10.170;2023-04-07T12:04:14;6.28;;;2.90;;
46090;SDS011;31826;53.572;10.170;2023-04-07T12:06:40;6.97;;;3.13;;
46090;SDS011;31826;53.572;10.170;2023-04-07T12:09:07;4.53;;;2.60;;
46090;SDS011;31826;53.572;10.170;2023-04-07T12:11:49;6.15;;;2.90;;
46090;SDS011;31826;53.572;10.170;2023-04-07T12:14:15;6.10;;;2.97;;
46090;SDS011;31826;53.572;10.170;2023-04-07T12:16:41;5.80;;;2.85;;
46090;SDS011;31826;53.572;10.170;2023-04-07T12:19:07;4.97;;;2.42;;
46090;SDS011;31826;53.572;10.170;2023-04-07T12:21:32;6.50;;;2.83;;
46090;SDS011;31826;53.572;10.170;2023-04-07T12:23:58;6.57;;;2.50;;
46090;SDS011;31826;53.572;10.170;2023-04-07T12:26:24;4.82;;;2.30;;
46090;SDS011;31826;53.572;10.170;2023-04-07T12:28:50;5.32;;;2.30;;
46090;SDS011;31826;53.572;10.170;2023-04-07T12:31:16;6.50;;;2.70;;
46090;SDS011;31826;53.572;10.170;2023-04-07T12:33:41;3.77;;;2.07;;
46090;SDS011;31826;53.572;10.170;2023-04-07T12:36:07;4.07;;;1.90;;
46090;SDS011;31826;53.572;10.170;2023-04-07T12:38:33;3.75;;;2.13;;
46090;SDS011;31826;53.572;10.170;2023-04-07T12:40:58;4.20;;;2.25;;
46090;SDS011;31826;53.572;10.170;2023-04-07T12:43:30;4.05;;;2.15;;
46090;SDS011;31826;53.572;10.170;2023-04-07T12:45:56;4.65;;;2.05;;
46090;SDS011;31826;53.572;10.170;2023-04-07T12:48:22;5.03;;;2.28;;
46090;SDS011;31826;53.572;10.170;2023-04-07T12:50:49;3.67;;;1.70;;
46090;SDS011;31826;53.572;10.170;2023-04-07T12:53:14;4.63;;;1.70;;
46090;SDS011;31826;53.572;10.170;2023-04-07T12:55:40;3.20;;;1.70;;
46090;SDS011;31826;53.572;10.170;2023-04-07T12:58:06;4.93;;;2.08;;
46090;SDS011;31826;53.572;10.170;2023-04-07T13:00:33;4.05;;;1.75;;
46090;SDS011;31826;53.572;10.170;2023-04-07T13:02:59;6.47;;;2.10;;
46090;SDS011;31826;53.572;10.170;2023-04-07T13:05:25;4.38;;;1.65;;
46090;SDS011;31826;53.572;10.170;2023-04-07T13:07:52;6.03;;;3.00;;
46090;SDS011;31826;53.572;10.170;2023-04-07T13:10:18;7.47;;;3.38;;
46090;SDS011;31826;53.572;10.170;2023-04-07T13:12:44;2.55;;;1.63;;
46090;SDS011;31826;53.572;10.170;2023-04-07T13:15:09;3.55;;;1.73;;
46090;SDS011;31826;53.572;10.170;2023-04-07T13:17:35;2.88;;;1.60;;
46090;SDS011;31826;53.572;10.170;2023-04-07T13:20:03;3.65;;;1.58;;
46090;SDS011;31826;53.572;10.170;2023-04-07T13:22:29;4.10;;;2.03;;
46090;SDS011;31826;53.572;10.170;2023-04-07T13:24:55;4.27;;;1.87;;
46090;SDS011;31826;53.572;10.170;2023-04-07T13:27:21;3.90;;;1.70;;
46090;SDS011;31826;53.572;10.170;2023-04-07T13:29:46;3.63;;;1.90;;
46090;SDS011;31826;53.572;10.170;2023-04-07T13:32:13;3.50;;;1.85;;
46090;SDS011;31826;53.572;10.170;2023-04-07T13:34:39;3.13;;;1.80;;
46090;SDS011;31826;53.572;10.170;2023-04-07T13:37:05;3.72;;;2.30;;
46090;SDS011;31826;53.572;10.170;2023-04-07T13:39:31;3.40;;;1.77;;
46090;SDS011;31826;53.572;10.170;2023-04-07T13:41:57;5.30;;;2.47;;
46090;SDS011;31826;53.572;10.170;2023-04-07T13:44:24;4.00;;;2.13;;
46090;SDS011;31826;53.572;10.170;2023-04-07T13:46:51;4.45;;;2.15;;
46090;SDS011;31826;53.572;10.170;2023-04-07T13:49:17;4.38;;;2.10;;
46090;SDS011;31826;53.572;10.170;2023-04-07T13:51:43;3.93;;;1.83;;
46090;SDS011;31826;53.572;10.170;2023-04-07T13:54:08;3.50;;;1.88;;
46090;SDS011;31826;53.572;10.170;2023-04-07T13:56:34;4.25;;;1.80;;
46090;SDS011;31826;53.572;10.170;2023-04-07T13:59:02;5.00;;;2.10;;
46090;SDS011;31826;53.572;10.170;2023-04-07T14:01:30;3.67;;;2.10;;
46090;SDS011;31826;53.572;10.170;2023-04-07T14:03:57;4.82;;;2.50;;
46090;SDS011;31826;53.572;10.170;2023-04-07T14:06:23;3.67;;;2.17;;
46090;SDS011;31826;53.572;10.170;2023-04-07T14:08:49;4.87;;;2.40;;
46090;SDS011;31826;53.572;10.170;2023-04-07T14:11:16;6.18;;;2.30;;
46090;SDS011;31826;53.572;10.170;2023-04-07T14:13:48;4.75;;;2.15;;
46090;SDS011;31826;53.572;10.170;2023-04-07T14:16:15;6.38;;;2.50;;
46090;SDS011;31826;53.572;10.170;2023-04-07T14:18:41;3.65;;;2.10;;
46090;SDS011;31826;53.572;10.170;2023-04-07T14:21:07;6.30;;;2.42;;
46090;SDS011;31826;53.572;10.170;2023-04-07T14:23:33;6.00;;;2.35;;
46090;SDS011;31826;53.572;10.170;2023-04-07T14:25:59;3.88;;;2.20;;
46090;SDS011;31826;53.572;10.170;2023-04-07T14:28:26;5.05;;;2.30;;
46090;SDS011;31826;53.572;10.170;2023-04-07T14:30:52;4.13;;;2.15;;
46090;SDS011;31826;53.572;10.170;2023-04-07T14:33:19;5.70;;;2.70;;
46090;SDS011;31826;53.572;10.170;2023-04-07T14:35:46;5.80;;;2.70;;
46090;SDS011;31826;53.572;10.170;2023-04-07T14:38:12;6.00;;;2.67;;
46090;SDS011;31826;53.572;10.170;2023-04-07T14:40:38;5.17;;;2.47;;
46090;SDS011;31826;53.572;10.170;2023-04-07T14:43:04;5.85;;;2.50;;
46090;SDS011;31826;53.572;10.170;2023-04-07T14:45:31;4.80;;;2.35;;
46090;SDS011;31826;53.572;10.170;2023-04-07T14:47:56;5.47;;;2.47;;
46090;SDS011;31826;53.572;10.170;2023-04-07T14:50:22;5.68;;;2.72;;
46090;SDS011;31826;53.572;10.170;2023-04-07T14:52:48;6.63;;;2.67;;
46090;SDS011;31826;53.572;10.170;2023-04-07T14:55:14;5.22;;;2.50;;
46090;SDS011;31826;53.572;10.170;2023-04-07T14:57:40;5.65;;;2.70;;
46090;SDS011;31826;53.572;10.170;2023-04-07T15:00:06;7.85;;;3.28;;
46090;SDS011;31826;53.572;10.170;2023-04-07T15:02:33;6.97;;;2.72;;